sensor_id;sensor_type;location;lat;lon;timestamp;P1;durP1;ratioP1;P2;durP2;ratioP2
22289;SDS011;11313;50.116;8.424;2023-12-07T00:00:28;1.80;;;1.70;;
22289;SDS011;11313;50.116;8.424;2023-12-07T00:02:54;2.03;;;1.80;;
22289;SDS011;11313;50.116;8.424;2023-12-07T00:05:19;2.40;;;1.80;;
22289;SDS011;11313;50.116;8.424;2023-12-07T00:07:45;2.30;;;1.80;;
22289;SDS011;11313;50.116;8.424;2023-12-07T00:10:11;2.28;;;1.83;;
22289;SDS011;11313;50.116;8.424;2023-12-07T00:12:36;2.00;;;1.80;;
22289;SDS011;11313;50.116;8.424;2023-12-07T00:15:02;2.00;;;1.80;;
22289;SDS011;11313;50.116;8.424;2023-12-07T00:17:27;1.80;;;1.70;;
22289;SDS011;11313;50.116;8.424;2023-12-07T00:19:53;1.80;;;1.70;;
22289;SDS011;11313;50.116;8.424;2023-12-07T00:22:20;1.95;;;1.80;;
22289;SDS011;11313;50.116;8.424;2023-12-07T00:24:46;2.05;;;1.85;;
22289;SDS011;11313;50.116;8.424;2023-12-07T00:27:11;2.25;;;1.63;;
22289;SDS011;11313;50.116;8.424;2023-12-07T00:29:37;1.70;;;1.60;;
22289;SDS011;11313;50.116;8.424;2023-12-07T00:32:03;2.25;;;1.90;;
22289;SDS011;11313;50.116;8.424;2023-12-07T00:34:29;2.35;;;1.80;;
22289;SDS011;11313;50.116;8.424;2023-12-07T00:36:55;1.77;;;1.67;;
22289;SDS011;11313;50.116;8.424;2023-12-07T00:39:20;1.70;;;1.60;;
22289;SDS011;11313;50.116;8.424;2023-12-07T00:41:46;1.70;;;1.60;;
22289;SDS011;11313;50.116;8.424;2023-12-07T00:44:12;2.33;;;2.03;;
22289;SDS011;11313;50.116;8.424;2023-12-07T00:46:39;1.73;;;1.50;;
22289;SDS011;11313;50.116;8.424;2023-12-07T00:49:04;1.80;;;1.70;;
22289;SDS011;11313;50.116;8.424;2023-12-07T00:51:30;1.77;;;1.60;;
22289;SDS011;11313;50.116;8.424;2023-12-07T00:53:55;1.90;;;1.70;;
22289;SDS011;11313;50.116;8.424;2023-12-07T00:56:21;1.70;;;1.60;;
22289;SDS011;11313;50.116;8.424;2023-12-07T00:58:46;1.65;;;1.55;;
22289;SDS011;11313;50.116;8.424;2023-12-07T01:01:13;2.00;;;1.52;;
22289;SDS011;11313;50.116;8.424;2023-12-07T01:03:38;2.85;;;1.70;;
22289;SDS011;11313;50.116;8.424;2023-12-07T01:06:05;1.88;;;1.67;;
22289;SDS011;11313;50.116;8.424;2023-12-07T01:08:31;1.92;;;1.80;;
22289;SDS011;11313;50.116;8.424;2023-12-07T01:10:57;1.60;;;1.50;;
22289;SDS011;11313;50.116;8.424;2023-12-07T01:13:22;1.70;;;1.60;;
22289;SDS011;11313;50.116;8.424;2023-12-07T01:15:48;1.90;;;1.73;;
22289;SDS011;11313;50.116;8.424;2023-12-07T01:18:14;1.98;;;1.80;;
22289;SDS011;11313;50.116;8.424;2023-12-07T01:20:40;1.77;;;1.67;;
22289;SDS011;11313;50.116;8.424;2023-12-07T01:23:06;1.95;;;1.50;;
22289;SDS011;11313;50.116;8.424;2023-12-07T01:25:33;2.10;;;1.70;;
22289;SDS011;11313;50.116;8.424;2023-12-07T01:27:59;2.00;;;1.80;;
22289;SDS011;11313;50.116;8.424;2023-12-07T01:30:24;1.67;;;1.58;;
22289;SDS011;11313;50.116;8.424;2023-12-07T01:32:50;2.00;;;1.80;;
22289;SDS011;11313;50.116;8.424;2023-12-07T01:35:15;2.28;;;1.92;;
22289;SDS011;11313;50.116;8.424;2023-12-07T01:37:41;1.70;;;1.60;;
22289;SDS011;11313;50.116;8.424;2023-12-07T01:40:07;2.00;;;1.70;;
22289;SDS011;11313;50.116;8.424;2023-12-07T01:42:38;1.90;;;1.73;;
22289;SDS011;11313;50.116;8.424;2023-12-07T01:45:06;2.03;;;1.83;;
22289;SDS011;11313;50.116;8.424;2023-12-07T01:47:32;1.60;;;1.50;;
22289;SDS011;11313;50.116;8.424;2023-12-07T01:50:00;1.92;;;1.70;;
22289;SDS011;11313;50.116;8.424;2023-12-07T01:52:29;1.90;;;1.70;;
22289;SDS011;11313;50.116;8.424;2023-12-07T01:54:55;1.58;;;1.48;;
22289;SDS011;11313;50.116;8.424;2023-12-07T01:57:21;1.90;;;1.80;;
22289;SDS011;11313;50.116;8.424;2023-12-07T01:59:48;2.08;;;1.88;;
22289;SDS011;11313;50.116;8.424;2023-12-07T02:02:14;1.70;;;1.60;;
22289;SDS011;11313;50.116;8.424;2023-12-07T02:04:39;1.70;;;1.60;;
22289;SDS011;11313;50.116;8.424;2023-12-07T02:07:05;2.00;;;1.70;;
22289;SDS011;11313;50.116;8.424;2023-12-07T02:09:31;1.75;;;1.65;;
22289;SDS011;11313;50.116;8.424;2023-12-07T02:11:57;1.80;;;1.70;;
22289;SDS011;11313;50.116;8.424;2023-12-07T02:14:23;2.17;;;1.70;;
22289;SDS011;11313;50.116;8.424;2023-12-07T02:16:49;1.92;;;1.80;;
22289;SDS011;11313;50.116;8.424;2023-12-07T02:19:41;1.65;;;1.50;;
22289;SDS011;11313;50.116;8.424;2023-12-07T02:22:22;2.00;;;1.80;;
22289;SDS011;11313;50.116;8.424;2023-12-07T02:25:02;2.17;;;1.65;;
22289;SDS011;11313;50.116;8.424;2023-12-07T02:27:44;1.70;;;1.60;;
22289;SDS011;11313;50.116;8.424;2023-12-07T02:30:11;1.67;;;1.58;;
22289;SDS011;11313;50.116;8.424;2023-12-07T02:32:37;1.70;;;1.60;;
22289;SDS011;11313;50.116;8.424;2023-12-07T02:35:04;2.10;;;1.63;;
22289;SDS011;11313;50.116;8.424;2023-12-07T02:37:35;1.58;;;1.48;;
22289;SDS011;11313;50.116;8.424;2023-12-07T02:40:06;1.95;;;1.45;;
22289;SDS011;11313;50.116;8.424;2023-12-07T02:42:35;1.45;;;1.35;;
22289;SDS011;11313;50.116;8.424;2023-12-07T02:45:03;1.60;;;1.50;;
22289;SDS011;11313;50.116;8.424;2023-12-07T02:47:29;1.60;;;1.42;;
22289;SDS011;11313;50.116;8.424;2023-12-07T02:49:54;1.55;;;1.45;;
22289;SDS011;11313;50.116;8.424;2023-12-07T02:52:20;1.65;;;1.55;;
22289;SDS011;11313;50.116;8.424;2023-12-07T02:54:45;1.90;;;1.80;;
22289;SDS011;11313;50.116;8.424;2023-12-07T02:57:11;1.65;;;1.55;;
22289;SDS011;11313;50.116;8.424;2023-12-07T02:59:37;1.63;;;1.52;;
22289;SDS011;11313;50.116;8.424;2023-12-07T03:02:03;1.50;;;1.40;;
22289;SDS011;11313;50.116;8.424;2023-12-07T03:04:28;1.60;;;1.50;;
22289;SDS011;11313;50.116;8.424;2023-12-07T03:06:54;2.00;;;1.73;;
22289;SDS011;11313;50.116;8.424;2023-12-07T03:09:19;1.65;;;1.55;;
22289;SDS011;11313;50.116;8.424;2023-12-07T03:11:45;1.50;;;1.40;;
22289;SDS011;11313;50.116;8.424;2023-12-07T03:14:10;1.80;;;1.48;;
22289;SDS011;11313;50.116;8.424;2023-12-07T03:16:35;1.40;;;1.30;;
22289;SDS011;11313;50.116;8.424;2023-12-07T03:19:01;1.40;;;1.30;;
22289;SDS011;11313;50.116;8.424;2023-12-07T03:21:27;1.50;;;1.40;;
22289;SDS011;11313;50.116;8.424;2023-12-07T03:23:52;1.67;;;1.55;;
22289;SDS011;11313;50.116;8.424;2023-12-07T03:26:18;1.50;;;1.40;;
22289;SDS011;11313;50.116;8.424;2023-12-07T03:28:44;1.42;;;1.33;;
22289;SDS011;11313;50.116;8.424;2023-12-07T03:31:09;1.40;;;1.30;;
22289;SDS011;11313;50.116;8.424;2023-12-07T03:33:35;1.75;;;1.40;;
22289;SDS011;11313;50.116;8.424;2023-12-07T03:36:01;1.50;;;1.40;;
22289;SDS011;11313;50.116;8.424;2023-12-07T03:38:27;1.67;;;1.50;;
22289;SDS011;11313;50.116;8.424;2023-12-07T03:40:52;1.75;;;1.63;;
22289;SDS011;11313;50.116;8.424;2023-12-07T03:43:19;1.88;;;1.45;;
22289;SDS011;11313;50.116;8.424;2023-12-07T03:45:45;1.80;;;1.70;;
22289;SDS011;11313;50.116;8.424;2023-12-07T03:48:10;1.52;;;1.38;;
22289;SDS011;11313;50.116;8.424;2023-12-07T03:50:36;1.58;;;1.48;;
22289;SDS011;11313;50.116;8.424;2023-12-07T03:53:01;1.50;;;1.40;;
22289;SDS011;11313;50.116;8.424;2023-12-07T03:55:27;1.40;;;1.30;;
22289;SDS011;11313;50.116;8.424;2023-12-07T03:57:52;1.70;;;1.50;;
22289;SDS011;11313;50.116;8.424;2023-12-07T04:00:18;1.80;;;1.70;;
22289;SDS011;11313;50.116;8.424;2023-12-07T04:02:43;1.52;;;1.42;;
22289;SDS011;11313;50.116;8.424;2023-12-07T04:05:09;1.63;;;1.48;;
22289;SDS011;11313;50.116;8.424;2023-12-07T04:07:34;1.70;;;1.40;;
22289;SDS011;11313;50.116;8.424;2023-12-07T04:10:00;1.55;;;1.45;;
22289;SDS011;11313;50.116;8.424;2023-12-07T04:12:25;1.60;;;1.50;;
22289;SDS011;11313;50.116;8.424;2023-12-07T04:14:51;1.50;;;1.40;;
22289;SDS011;11313;50.116;8.424;2023-12-07T04:17:17;1.83;;;1.60;;
22289;SDS011;11313;50.116;8.424;2023-12-07T04:19:42;1.40;;;1.30;;
22289;SDS011;11313;50.116;8.424;2023-12-07T04:22:08;1.40;;;1.30;;
22289;SDS011;11313;50.116;8.424;2023-12-07T04:24:33;1.48;;;1.38;;
22289;SDS011;11313;50.116;8.424;2023-12-07T04:26:58;1.60;;;1.50;;
22289;SDS011;11313;50.116;8.424;2023-12-07T04:29:24;1.30;;;1.20;;
22289;SDS011;11313;50.116;8.424;2023-12-07T04:31:49;1.40;;;1.30;;
22289;SDS011;11313;50.116;8.424;2023-12-07T04:34:15;1.40;;;1.30;;
22289;SDS011;11313;50.116;8.424;2023-12-07T04:36:40;1.48;;;1.38;;
22289;SDS011;11313;50.116;8.424;2023-12-07T04:39:06;2.05;;;1.55;;
22289;SDS011;11313;50.116;8.424;2023-12-07T04:41:33;1.42;;;1.33;;
22289;SDS011;11313;50.116;8.424;2023-12-07T04:43:58;1.40;;;1.30;;
22289;SDS011;11313;50.116;8.424;2023-12-07T04:46:24;1.70;;;1.55;;
22289;SDS011;11313;50.116;8.424;2023-12-07T04:48:49;1.52;;;1.42;;
22289;SDS011;11313;50.116;8.424;2023-12-07T04:51:15;1.40;;;1.30;;
22289;SDS011;11313;50.116;8.424;2023-12-07T04:53:40;1.52;;;1.42;;
22289;SDS011;11313;50.116;8.424;2023-12-07T04:56:06;1.40;;;1.30;;
22289;SDS011;11313;50.116;8.424;2023-12-07T04:58:32;1.60;;;1.48;;
22289;SDS011;11313;50.116;8.424;2023-12-07T05:00:58;1.50;;;1.40;;
22289;SDS011;11313;50.116;8.424;2023-12-07T05:03:24;1.63;;;1.35;;
22289;SDS011;11313;50.116;8.424;2023-12-07T05:05:49;1.30;;;1.20;;
22289;SDS011;11313;50.116;8.424;2023-12-07T05:08:15;1.30;;;1.20;;
22289;SDS011;11313;50.116;8.424;2023-12-07T05:10:41;1.40;;;1.30;;
22289;SDS011;11313;50.116;8.424;2023-12-07T05:13:06;1.35;;;1.25;;
22289;SDS011;11313;50.116;8.424;2023-12-07T05:15:32;1.60;;;1.33;;
22289;SDS011;11313;50.116;8.424;2023-12-07T05:17:57;1.50;;;1.40;;
22289;SDS011;11313;50.116;8.424;2023-12-07T05:20:23;1.40;;;1.30;;
22289;SDS011;11313;50.116;8.424;2023-12-07T05:22:49;1.35;;;1.25;;
22289;SDS011;11313;50.116;8.424;2023-12-07T05:25:15;1.40;;;1.30;;
22289;SDS011;11313;50.116;8.424;2023-12-07T05:27:40;5.13;;;1.20;;
22289;SDS011;11313;50.116;8.424;2023-12-07T05:30:06;7.90;;;1.73;;
22289;SDS011;11313;50.116;8.424;2023-12-07T05:32:32;4.72;;;1.70;;
22289;SDS011;11313;50.116;8.424;2023-12-07T05:34:58;5.38;;;1.40;;
22289;SDS011;11313;50.116;8.424;2023-12-07T05:37:23;2.10;;;1.40;;
22289;SDS011;11313;50.116;8.424;2023-12-07T05:39:48;4.25;;;1.48;;
22289;SDS011;11313;50.116;8.424;2023-12-07T05:42:14;2.67;;;1.40;;
22289;SDS011;11313;50.116;8.424;2023-12-07T05:44:39;5.00;;;1.73;;
22289;SDS011;11313;50.116;8.424;2023-12-07T05:47:05;5.28;;;1.20;;
22289;SDS011;11313;50.116;8.424;2023-12-07T05:49:30;2.17;;;1.30;;
22289;SDS011;11313;50.116;8.424;2023-12-07T05:51:57;3.47;;;1.48;;
22289;SDS011;11313;50.116;8.424;2023-12-07T05:54:22;2.28;;;1.17;;
22289;SDS011;11313;50.116;8.424;2023-12-07T05:56:48;1.75;;;1.20;;
22289;SDS011;11313;50.116;8.424;2023-12-07T05:59:13;3.78;;;1.50;;
22289;SDS011;11313;50.116;8.424;2023-12-07T06:01:39;1.73;;;1.30;;
22289;SDS011;11313;50.116;8.424;2023-12-07T06:04:05;3.63;;;1.20;;
22289;SDS011;11313;50.116;8.424;2023-12-07T06:06:33;1.75;;;1.20;;
22289;SDS011;11313;50.116;8.424;2023-12-07T06:08:59;3.05;;;1.48;;
22289;SDS011;11313;50.116;8.424;2023-12-07T06:11:24;2.88;;;1.48;;
22289;SDS011;11313;50.116;8.424;2023-12-07T06:13:50;2.55;;;1.30;;
22289;SDS011;11313;50.116;8.424;2023-12-07T06:16:15;1.50;;;1.40;;
22289;SDS011;11313;50.116;8.424;2023-12-07T06:18:42;1.60;;;1.35;;
22289;SDS011;11313;50.116;8.424;2023-12-07T06:21:08;2.17;;;1.25;;
22289;SDS011;11313;50.116;8.424;2023-12-07T06:23:33;1.17;;;1.08;;
22289;SDS011;11313;50.116;8.424;2023-12-07T06:25:59;1.80;;;1.30;;
22289;SDS011;11313;50.116;8.424;2023-12-07T06:28:24;4.20;;;1.48;;
22289;SDS011;11313;50.116;8.424;2023-12-07T06:30:50;4.28;;;1.30;;
22289;SDS011;11313;50.116;8.424;2023-12-07T06:33:15;4.03;;;1.27;;
22289;SDS011;11313;50.116;8.424;2023-12-07T06:35:41;1.77;;;1.40;;
22289;SDS011;11313;50.116;8.424;2023-12-07T06:38:06;1.70;;;1.50;;
22289;SDS011;11313;50.116;8.424;2023-12-07T06:40:32;1.92;;;1.23;;
22289;SDS011;11313;50.116;8.424;2023-12-07T06:42:57;2.40;;;1.48;;
22289;SDS011;11313;50.116;8.424;2023-12-07T06:45:23;3.75;;;1.40;;
22289;SDS011;11313;50.116;8.424;2023-12-07T06:47:49;1.80;;;1.33;;
22289;SDS011;11313;50.116;8.424;2023-12-07T06:50:14;0.93;;;0.93;;
22289;SDS011;11313;50.116;8.424;2023-12-07T06:52:40;1.30;;;1.17;;
22289;SDS011;11313;50.116;8.424;2023-12-07T06:55:06;1.65;;;1.30;;
22289;SDS011;11313;50.116;8.424;2023-12-07T06:57:32;6.40;;;1.90;;
22289;SDS011;11313;50.116;8.424;2023-12-07T06:59:58;2.75;;;1.50;;
22289;SDS011;11313;50.116;8.424;2023-12-07T07:02:23;3.58;;;1.40;;
22289;SDS011;11313;50.116;8.424;2023-12-07T07:04:49;1.42;;;1.30;;
22289;SDS011;11313;50.116;8.424;2023-12-07T07:07:15;3.17;;;1.50;;
22289;SDS011;11313;50.116;8.424;2023-12-07T07:09:41;2.95;;;1.35;;
22289;SDS011;11313;50.116;8.424;2023-12-07T07:12:07;3.10;;;1.35;;
22289;SDS011;11313;50.116;8.424;2023-12-07T07:14:32;7.20;;;2.08;;
22289;SDS011;11313;50.116;8.424;2023-12-07T07:16:58;7.18;;;1.80;;
22289;SDS011;11313;50.116;8.424;2023-12-07T07:19:23;7.85;;;1.75;;
22289;SDS011;11313;50.116;8.424;2023-12-07T07:21:49;3.92;;;1.90;;
22289;SDS011;11313;50.116;8.424;2023-12-07T07:24:14;3.55;;;2.13;;
22289;SDS011;11313;50.116;8.424;2023-12-07T07:26:40;3.75;;;1.80;;
22289;SDS011;11313;50.116;8.424;2023-12-07T07:29:05;7.07;;;2.05;;
22289;SDS011;11313;50.116;8.424;2023-12-07T07:31:31;5.70;;;2.00;;
22289;SDS011;11313;50.116;8.424;2023-12-07T07:33:57;3.92;;;2.15;;
22289;SDS011;11313;50.116;8.424;2023-12-07T07:36:22;5.28;;;1.90;;
22289;SDS011;11313;50.116;8.424;2023-12-07T07:38:47;7.45;;;1.95;;
22289;SDS011;11313;50.116;8.424;2023-12-07T07:41:13;3.47;;;2.00;;
22289;SDS011;11313;50.116;8.424;2023-12-07T07:43:39;4.20;;;1.90;;
22289;SDS011;11313;50.116;8.424;2023-12-07T07:46:04;3.50;;;1.98;;
22289;SDS011;11313;50.116;8.424;2023-12-07T07:48:30;3.90;;;2.03;;
22289;SDS011;11313;50.116;8.424;2023-12-07T07:50:56;3.50;;;1.90;;
22289;SDS011;11313;50.116;8.424;2023-12-07T07:53:22;3.35;;;2.10;;
22289;SDS011;11313;50.116;8.424;2023-12-07T07:55:47;4.60;;;2.15;;
22289;SDS011;11313;50.116;8.424;2023-12-07T07:58:13;4.40;;;2.20;;
22289;SDS011;11313;50.116;8.424;2023-12-07T08:00:38;6.80;;;2.30;;
22289;SDS011;11313;50.116;8.424;2023-12-07T08:03:04;2.97;;;2.17;;
22289;SDS011;11313;50.116;8.424;2023-12-07T08:05:30;5.72;;;2.28;;
22289;SDS011;11313;50.116;8.424;2023-12-07T08:07:55;3.50;;;2.25;;
22289;SDS011;11313;50.116;8.424;2023-12-07T08:10:21;4.53;;;2.33;;
22289;SDS011;11313;50.116;8.424;2023-12-07T08:12:46;3.40;;;2.40;;
22289;SDS011;11313;50.116;8.424;2023-12-07T08:15:12;3.83;;;2.30;;
22289;SDS011;11313;50.116;8.424;2023-12-07T08:17:38;3.45;;;2.40;;
22289;SDS011;11313;50.116;8.424;2023-12-07T08:20:07;3.60;;;2.15;;
22289;SDS011;11313;50.116;8.424;2023-12-07T08:22:35;4.85;;;2.95;;
22289;SDS011;11313;50.116;8.424;2023-12-07T08:25:01;3.58;;;2.28;;
22289;SDS011;11313;50.116;8.424;2023-12-07T08:27:27;3.35;;;2.50;;
22289;SDS011;11313;50.116;8.424;2023-12-07T08:29:52;4.68;;;2.40;;
22289;SDS011;11313;50.116;8.424;2023-12-07T08:32:18;3.47;;;2.60;;
22289;SDS011;11313;50.116;8.424;2023-12-07T08:34:44;4.68;;;2.22;;
22289;SDS011;11313;50.116;8.424;2023-12-07T08:37:11;3.88;;;2.63;;
22289;SDS011;11313;50.116;8.424;2023-12-07T08:39:36;3.85;;;2.67;;
22289;SDS011;11313;50.116;8.424;2023-12-07T08:42:03;6.60;;;2.35;;
22289;SDS011;11313;50.116;8.424;2023-12-07T08:44:28;5.97;;;2.58;;
22289;SDS011;11313;50.116;8.424;2023-12-07T08:46:54;4.03;;;2.58;;
22289;SDS011;11313;50.116;8.424;2023-12-07T08:49:19;3.00;;;2.35;;
22289;SDS011;11313;50.116;8.424;2023-12-07T08:51:45;4.07;;;2.70;;
22289;SDS011;11313;50.116;8.424;2023-12-07T08:54:10;3.13;;;2.38;;
22289;SDS011;11313;50.116;8.424;2023-12-07T08:56:36;4.75;;;2.83;;
22289;SDS011;11313;50.116;8.424;2023-12-07T08:59:02;4.47;;;2.30;;
22289;SDS011;11313;50.116;8.424;2023-12-07T09:01:27;2.88;;;2.42;;
22289;SDS011;11313;50.116;8.424;2023-12-07T09:03:53;2.85;;;2.53;;
22289;SDS011;11313;50.116;8.424;2023-12-07T09:06:18;3.30;;;2.60;;
22289;SDS011;11313;50.116;8.424;2023-12-07T09:08:44;3.53;;;2.38;;
22289;SDS011;11313;50.116;8.424;2023-12-07T09:11:10;2.95;;;2.25;;
22289;SDS011;11313;50.116;8.424;2023-12-07T09:13:36;5.35;;;2.55;;
22289;SDS011;11313;50.116;8.424;2023-12-07T09:16:01;3.42;;;2.60;;
22289;SDS011;11313;50.116;8.424;2023-12-07T09:18:27;3.22;;;2.58;;
22289;SDS011;11313;50.116;8.424;2023-12-07T09:20:52;3.50;;;2.58;;
22289;SDS011;11313;50.116;8.424;2023-12-07T09:23:18;3.95;;;2.88;;
22289;SDS011;11313;50.116;8.424;2023-12-07T09:25:43;3.22;;;2.53;;
22289;SDS011;11313;50.116;8.424;2023-12-07T09:28:10;3.58;;;2.80;;
22289;SDS011;11313;50.116;8.424;2023-12-07T09:30:36;6.25;;;2.50;;
22289;SDS011;11313;50.116;8.424;2023-12-07T09:33:02;3.83;;;2.75;;
22289;SDS011;11313;50.116;8.424;2023-12-07T09:35:28;4.57;;;2.65;;
22289;SDS011;11313;50.116;8.424;2023-12-07T09:37:53;3.33;;;2.72;;
22289;SDS011;11313;50.116;8.424;2023-12-07T09:40:19;4.32;;;2.72;;
22289;SDS011;11313;50.116;8.424;2023-12-07T09:42:46;3.85;;;2.72;;
22289;SDS011;11313;50.116;8.424;2023-12-07T09:45:12;4.55;;;2.67;;
22289;SDS011;11313;50.116;8.424;2023-12-07T09:47:41;5.43;;;2.90;;
22289;SDS011;11313;50.116;8.424;2023-12-07T09:50:07;5.30;;;2.55;;
22289;SDS011;11313;50.116;8.424;2023-12-07T09:52:34;3.08;;;2.40;;
22289;SDS011;11313;50.116;8.424;2023-12-07T09:55:01;4.05;;;3.00;;
22289;SDS011;11313;50.116;8.424;2023-12-07T09:57:27;3.00;;;2.70;;
22289;SDS011;11313;50.116;8.424;2023-12-07T09:59:53;4.47;;;2.63;;
22289;SDS011;11313;50.116;8.424;2023-12-07T10:02:20;4.68;;;2.60;;
22289;SDS011;11313;50.116;8.424;2023-12-07T10:04:46;3.90;;;2.70;;
22289;SDS011;11313;50.116;8.424;2023-12-07T10:07:12;5.78;;;2.67;;
22289;SDS011;11313;50.116;8.424;2023-12-07T10:09:41;4.28;;;3.00;;
22289;SDS011;11313;50.116;8.424;2023-12-07T10:12:07;5.40;;;2.55;;
22289;SDS011;11313;50.116;8.424;2023-12-07T10:14:33;3.08;;;2.60;;
22289;SDS011;11313;50.116;8.424;2023-12-07T10:16:59;4.03;;;2.80;;
22289;SDS011;11313;50.116;8.424;2023-12-07T10:19:25;3.67;;;2.63;;
22289;SDS011;11313;50.116;8.424;2023-12-07T10:21:52;4.72;;;2.70;;
22289;SDS011;11313;50.116;8.424;2023-12-07T10:24:22;4.18;;;2.78;;
22289;SDS011;11313;50.116;8.424;2023-12-07T10:26:50;3.00;;;2.50;;
22289;SDS011;11313;50.116;8.424;2023-12-07T10:29:19;3.47;;;2.70;;
22289;SDS011;11313;50.116;8.424;2023-12-07T10:31:45;3.10;;;2.58;;
22289;SDS011;11313;50.116;8.424;2023-12-07T10:34:12;2.97;;;2.35;;
22289;SDS011;11313;50.116;8.424;2023-12-07T10:36:37;2.50;;;2.28;;
22289;SDS011;11313;50.116;8.424;2023-12-07T10:39:03;3.95;;;2.72;;
22289;SDS011;11313;50.116;8.424;2023-12-07T10:41:31;3.83;;;2.60;;
22289;SDS011;11313;50.116;8.424;2023-12-07T10:44:02;2.95;;;2.60;;
22289;SDS011;11313;50.116;8.424;2023-12-07T10:46:30;3.50;;;2.63;;
22289;SDS011;11313;50.116;8.424;2023-12-07T10:48:59;3.20;;;2.58;;
22289;SDS011;11313;50.116;8.424;2023-12-07T10:54:04;3.40;;;2.45;;
22289;SDS011;11313;50.116;8.424;2023-12-07T10:56:43;2.93;;;2.43;;
22289;SDS011;11313;50.116;8.424;2023-12-07T10:59:09;2.78;;;2.35;;
22289;SDS011;11313;50.116;8.424;2023-12-07T11:01:39;4.72;;;2.40;;
22289;SDS011;11313;50.116;8.424;2023-12-07T11:04:05;3.17;;;2.28;;
22289;SDS011;11313;50.116;8.424;2023-12-07T11:06:31;2.92;;;2.50;;
22289;SDS011;11313;50.116;8.424;2023-12-07T11:08:58;3.05;;;2.33;;
22289;SDS011;11313;50.116;8.424;2023-12-07T11:11:41;2.90;;;2.22;;
22289;SDS011;11313;50.116;8.424;2023-12-07T11:14:11;3.22;;;2.38;;
22289;SDS011;11313;50.116;8.424;2023-12-07T11:16:41;3.47;;;2.45;;
22289;SDS011;11313;50.116;8.424;2023-12-07T11:22:13;2.80;;;2.50;;
22289;SDS011;11313;50.116;8.424;2023-12-07T11:24:51;3.17;;;2.40;;
22289;SDS011;11313;50.116;8.424;2023-12-07T11:27:28;2.60;;;2.30;;
22289;SDS011;11313;50.116;8.424;2023-12-07T11:29:57;3.50;;;2.45;;
22289;SDS011;11313;50.116;8.424;2023-12-07T11:32:25;3.33;;;2.58;;
22289;SDS011;11313;50.116;8.424;2023-12-07T11:34:52;3.38;;;2.33;;
22289;SDS011;11313;50.116;8.424;2023-12-07T11:37:17;3.92;;;2.33;;
22289;SDS011;11313;50.116;8.424;2023-12-07T11:39:44;2.63;;;2.22;;
22289;SDS011;11313;50.116;8.424;2023-12-07T11:42:18;2.88;;;2.55;;
22289;SDS011;11313;50.116;8.424;2023-12-07T11:44:48;2.63;;;2.40;;
22289;SDS011;11313;50.116;8.424;2023-12-07T11:47:18;4.03;;;2.67;;
22289;SDS011;11313;50.116;8.424;2023-12-07T11:49:45;2.50;;;2.30;;
22289;SDS011;11313;50.116;8.424;2023-12-07T11:52:21;3.90;;;2.40;;
22289;SDS011;11313;50.116;8.424;2023-12-07T11:54:47;2.85;;;2.50;;
22289;SDS011;11313;50.116;8.424;2023-12-07T11:57:14;3.13;;;2.45;;
22289;SDS011;11313;50.116;8.424;2023-12-07T11:59:41;2.67;;;2.40;;
22289;SDS011;11313;50.116;8.424;2023-12-07T12:02:09;6.25;;;2.60;;
22289;SDS011;11313;50.116;8.424;2023-12-07T12:04:39;5.22;;;2.78;;
22289;SDS011;11313;50.116;8.424;2023-12-07T12:07:05;5.40;;;2.53;;
22289;SDS011;11313;50.116;8.424;2023-12-07T12:09:31;6.20;;;2.97;;
22289;SDS011;11313;50.116;8.424;2023-12-07T12:11:58;4.80;;;2.60;;
22289;SDS011;11313;50.116;8.424;2023-12-07T12:14:25;3.97;;;2.50;;
22289;SDS011;11313;50.116;8.424;2023-12-07T12:16:51;6.72;;;2.70;;
22289;SDS011;11313;50.116;8.424;2023-12-07T12:19:17;3.45;;;2.50;;
22289;SDS011;11313;50.116;8.424;2023-12-07T12:21:43;5.55;;;2.72;;
22289;SDS011;11313;50.116;8.424;2023-12-07T12:24:08;4.82;;;2.60;;
22289;SDS011;11313;50.116;8.424;2023-12-07T12:26:36;4.28;;;2.70;;
22289;SDS011;11313;50.116;8.424;2023-12-07T12:29:04;3.92;;;2.50;;
22289;SDS011;11313;50.116;8.424;2023-12-07T12:31:31;6.22;;;2.80;;
22289;SDS011;11313;50.116;8.424;2023-12-07T12:33:57;4.50;;;2.53;;
22289;SDS011;11313;50.116;8.424;2023-12-07T12:36:23;5.70;;;2.65;;
22289;SDS011;11313;50.116;8.424;2023-12-07T12:38:51;7.30;;;2.75;;
22289;SDS011;11313;50.116;8.424;2023-12-07T12:41:20;3.85;;;2.58;;
22289;SDS011;11313;50.116;8.424;2023-12-07T12:43:46;6.13;;;2.50;;
22289;SDS011;11313;50.116;8.424;2023-12-07T12:46:13;3.38;;;2.75;;
22289;SDS011;11313;50.116;8.424;2023-12-07T12:48:56;4.03;;;2.70;;
22289;SDS011;11313;50.116;8.424;2023-12-07T12:51:25;5.35;;;2.80;;
22289;SDS011;11313;50.116;8.424;2023-12-07T12:53:53;5.57;;;2.72;;
22289;SDS011;11313;50.116;8.424;2023-12-07T12:56:19;4.22;;;2.75;;
22289;SDS011;11313;50.116;8.424;2023-12-07T12:58:49;4.95;;;2.90;;
22289;SDS011;11313;50.116;8.424;2023-12-07T13:01:18;3.50;;;2.45;;
22289;SDS011;11313;50.116;8.424;2023-12-07T13:03:45;3.58;;;2.65;;
22289;SDS011;11313;50.116;8.424;2023-12-07T13:06:11;8.13;;;3.13;;
22289;SDS011;11313;50.116;8.424;2023-12-07T13:08:41;3.95;;;2.90;;
22289;SDS011;11313;50.116;8.424;2023-12-07T13:11:08;3.10;;;2.70;;
22289;SDS011;11313;50.116;8.424;2023-12-07T13:13:34;3.58;;;2.75;;
22289;SDS011;11313;50.116;8.424;2023-12-07T13:16:00;3.42;;;2.60;;
22289;SDS011;11313;50.116;8.424;2023-12-07T13:18:25;3.90;;;2.70;;
22289;SDS011;11313;50.116;8.424;2023-12-07T13:20:51;3.63;;;2.70;;
22289;SDS011;11313;50.116;8.424;2023-12-07T13:23:16;3.20;;;2.40;;
22289;SDS011;11313;50.116;8.424;2023-12-07T13:25:41;4.78;;;2.97;;
22289;SDS011;11313;50.116;8.424;2023-12-07T13:28:07;3.35;;;2.83;;
22289;SDS011;11313;50.116;8.424;2023-12-07T13:30:33;5.13;;;2.75;;
22289;SDS011;11313;50.116;8.424;2023-12-07T13:33:00;5.72;;;2.60;;
22289;SDS011;11313;50.116;8.424;2023-12-07T13:35:26;4.43;;;3.00;;
22289;SDS011;11313;50.116;8.424;2023-12-07T13:37:52;4.22;;;2.83;;
22289;SDS011;11313;50.116;8.424;2023-12-07T13:40:17;3.72;;;2.75;;
22289;SDS011;11313;50.116;8.424;2023-12-07T13:42:42;4.32;;;2.63;;
22289;SDS011;11313;50.116;8.424;2023-12-07T13:45:08;3.90;;;2.83;;
22289;SDS011;11313;50.116;8.424;2023-12-07T13:47:34;5.10;;;2.60;;
22289;SDS011;11313;50.116;8.424;2023-12-07T13:50:02;4.25;;;2.90;;
22289;SDS011;11313;50.116;8.424;2023-12-07T13:52:28;5.85;;;2.72;;
22289;SDS011;11313;50.116;8.424;2023-12-07T13:54:54;3.47;;;2.60;;
22289;SDS011;11313;50.116;8.424;2023-12-07T13:57:21;3.47;;;2.63;;
22289;SDS011;11313;50.116;8.424;2023-12-07T13:59:49;5.82;;;3.05;;
22289;SDS011;11313;50.116;8.424;2023-12-07T14:02:15;4.55;;;2.90;;
22289;SDS011;11313;50.116;8.424;2023-12-07T14:04:41;3.78;;;2.88;;
22289;SDS011;11313;50.116;8.424;2023-12-07T14:07:07;5.63;;;3.30;;
22289;SDS011;11313;50.116;8.424;2023-12-07T14:09:40;4.18;;;2.90;;
22289;SDS011;11313;50.116;8.424;2023-12-07T14:12:07;5.15;;;2.70;;
22289;SDS011;11313;50.116;8.424;2023-12-07T14:14:34;3.88;;;3.08;;
22289;SDS011;11313;50.116;8.424;2023-12-07T14:16:59;6.50;;;3.00;;
22289;SDS011;11313;50.116;8.424;2023-12-07T14:19:25;4.88;;;3.10;;
22289;SDS011;11313;50.116;8.424;2023-12-07T14:21:50;4.65;;;3.03;;
22289;SDS011;11313;50.116;8.424;2023-12-07T14:24:16;4.45;;;3.10;;
22289;SDS011;11313;50.116;8.424;2023-12-07T14:26:43;6.47;;;2.92;;
22289;SDS011;11313;50.116;8.424;2023-12-07T14:29:08;5.65;;;2.85;;
22289;SDS011;11313;50.116;8.424;2023-12-07T14:31:39;6.70;;;3.10;;
22289;SDS011;11313;50.116;8.424;2023-12-07T14:34:07;4.50;;;2.75;;
22289;SDS011;11313;50.116;8.424;2023-12-07T14:36:33;5.80;;;2.90;;
22289;SDS011;11313;50.116;8.424;2023-12-07T14:38:58;5.15;;;2.80;;
22289;SDS011;11313;50.116;8.424;2023-12-07T14:41:24;5.32;;;3.03;;
22289;SDS011;11313;50.116;8.424;2023-12-07T14:43:49;4.25;;;2.88;;
22289;SDS011;11313;50.116;8.424;2023-12-07T14:46:15;3.10;;;2.80;;
22289;SDS011;11313;50.116;8.424;2023-12-07T14:48:42;3.13;;;2.67;;